Terminal Aerodrome Forecast
Issued by NWS

Home | Current Version | Previous Version | Graphics & Text | Print | Product List | Glossary On
Versions: 1 2 3 4 5 6 7 8 9 10 11 12 13 14 15 16
000
FTUS43 KMPX 151400 AAA
TAFAXN
TAF AMD
KAXN 151447Z 1515/1612 35013KT P6SM OVC006
     FM151600 36017G27KT 1 1/2SM -DZSN BR OVC005
      TEMPO 1516/1519 -FZDZ OVC003
     FM152000 35022G32KT 5SM -SN BR OVC009
     FM160400 35019G26KT P6SM OVC015=

USA.gov is the U.S. government's official web portal to all federal, state and local government web resources and services.